Vauxhall, New Jersey
Current Conditions -  °F | °C
As of 1:51 PM on Monday 20 Oct 2014 (Local Time) from KEWR Reporting Station
Broken Clouds Broken Clouds  
Wind Chill: 59°   Ceiling: 25000
Heat Index: 59°   Visibility: 10mi
Dew Point: 35°   Wind: 7mph
Humidity: 41%   Direction: 240°WSW
Pressure: 30.04"   Gusts: NA
Location:  40.73°N, 74.28°W
Report Text: KEWR 201751Z 24006KT 10SM FEW140 SCT170 BKN250 15/02 A3004 RMK AO2 SLP170 T01500017 10150 20050 58029
Loading
Personal Weather Stations






























Interactive Weather Map New forecast layout! Learn more

10-Day Weather Forecast

Advertisements
Track Severe Weather on mobile